Pagrindinis puslapis
METAR-TAF:

METAR-TAF

Oro uostai :

Pula, Kroatija

platuma: 44-54N, ilguma: 013-55E, Aukštis: 63 m

Dabartinis oras

Ataskaita buvo paskelbta 16 minutes, ne 18:30 UTC
Vėjas 12 kt iš Rytų/Šiaurės Rytų
Temperatūra 17°C
Drėgmė 45%
Slėgis 1021 hPa
Matomumas 10 km arba daugiau
nėra debesų žemiau 1500 m ir nėra kamuolinių lietaus debesų

METAR: LDPL 191830Z 06012KT CAVOK 17/05 Q1021 NOSIG

Laikas: 20:46 (18:46 UTC)

Prognozė

Ataskaita buvo paskelbta 1 valandą ir 21 minutes, ne 17:25 UTC
Prognozė galioja nuo 19 metu 18 UTC su 20 metu 18 UTC
Vėjas 10 kt iš Šiaurės Rytų
Matomumas 10 km arba daugiau
nėra debesų žemiau 1500 m ir nėra kamuolinių lietaus debesų
Tikimybė 30% :
Laikinai
nuo 19 metu 21 UTC su 20 metu 03 UTC
Vėjas 15 kt iš Rytų/Šiaurės Rytų su gūsio iki 28 kt

TAF: LDPL 191725Z 1918/2018 05010KT CAVOK TX21/2012Z TN13/2004Z PROB30 TEMPO 1921/2003 07015G28KT

Orai ataskaitas ir orų prognozės (METAR, TAF).

turimą stotys yra geltonos ir raudonos taškus žemėlapyje.

Perkelti pele per norėdami pamatyti stoties vardą.

Tada spustelėkite, norėdami matyti oro stebėjimo ir prognozės.

Norėdami pakeisti žemėlapį: spustelėkite ant žalios mygtukų su juodo kryžiaus žemyn,; žalią mygtuką su brūkšneliu, jei norite nutolinti; arba žalių rodyklių gretimoms žemėlapius.


METAR-TAF: